sensor_id;sensor_type;location;lat;lon;timestamp;pressure;altitude;pressure_sealevel;temperature;humidity
75794;BME280;64418;47.536;19.074;2023-09-19T00:01:51;99774.69;;;22.76;60.82
75794;BME280;64418;47.536;19.074;2023-09-19T00:04:20;99772.53;;;22.73;60.88
75794;BME280;64418;47.536;19.074;2023-09-19T00:06:45;99776.41;;;22.72;61.13
75794;BME280;64418;47.536;19.074;2023-09-19T00:09:11;99780.91;;;22.68;61.16
75794;BME280;64418;47.536;19.074;2023-09-19T00:11:37;99758.13;;;22.57;61.32
75794;BME280;64418;47.536;19.074;2023-09-19T00:14:04;99777.84;;;22.69;61.04
75794;BME280;64418;47.536;19.074;2023-09-19T00:16:30;99761.72;;;22.58;61.45
75794;BME280;64418;47.536;19.074;2023-09-19T00:18:56;99771.87;;;22.62;61.67
75794;BME280;64418;47.536;19.074;2023-09-19T00:21:23;99776.84;;;22.60;61.88
75794;BME280;64418;47.536;19.074;2023-09-19T00:23:49;99771.31;;;22.60;61.97
75794;BME280;64418;47.536;19.074;2023-09-19T00:26:15;99773.59;;;22.58;62.14
75794;BME280;64418;47.536;19.074;2023-09-19T00:28:41;99764.25;;;22.54;62.20
75794;BME280;64418;47.536;19.074;2023-09-19T00:31:08;99774.25;;;22.50;62.35
75794;BME280;64418;47.536;19.074;2023-09-19T00:33:34;99769.34;;;22.47;62.63
75794;BME280;64418;47.536;19.074;2023-09-19T00:36:01;99772.59;;;22.49;62.68
75794;BME280;64418;47.536;19.074;2023-09-19T00:38:28;99769.91;;;22.44;62.96
75794;BME280;64418;47.536;19.074;2023-09-19T00:40:55;99768.88;;;22.40;63.25
75794;BME280;64418;47.536;19.074;2023-09-19T00:43:22;99770.00;;;22.39;63.30
75794;BME280;64418;47.536;19.074;2023-09-19T00:45:49;99759.63;;;22.31;63.52
75794;BME280;64418;47.536;19.074;2023-09-19T00:48:16;99766.22;;;22.35;63.63
75794;BME280;64418;47.536;19.074;2023-09-19T00:50:42;99770.06;;;22.34;63.71
75794;BME280;64418;47.536;19.074;2023-09-19T00:53:09;99770.06;;;22.34;63.80
75794;BME280;64418;47.536;19.074;2023-09-19T00:55:37;99758.00;;;22.30;63.92
75794;BME280;64418;47.536;19.074;2023-09-19T00:58:04;99761.88;;;22.29;64.01
75794;BME280;64418;47.536;19.074;2023-09-19T01:00:30;99760.75;;;22.30;64.07
75794;BME280;64418;47.536;19.074;2023-09-19T01:02:57;99754.72;;;22.28;64.22
75794;BME280;64418;47.536;19.074;2023-09-19T01:05:23;99758.59;;;22.27;64.31
75794;BME280;64418;47.536;19.074;2023-09-19T01:07:50;99761.62;;;22.25;64.37
75794;BME280;64418;47.536;19.074;2023-09-19T01:10:18;99759.19;;;22.24;64.56
75794;BME280;64418;47.536;19.074;2023-09-19T01:12:53;99759.19;;;22.24;64.65
75794;BME280;64418;47.536;19.074;2023-09-19T01:15:28;99765.28;;;22.21;64.70
75794;BME280;64418;47.536;19.074;2023-09-19T01:18:02;99763.66;;;22.20;65.01
75794;BME280;64418;47.536;19.074;2023-09-19T01:20:37;99743.75;;;22.04;65.18
75794;BME280;64418;47.536;19.074;2023-09-19T01:23:12;99770.91;;;22.16;65.37
75794;BME280;64418;47.536;19.074;2023-09-19T01:26:05;99764.84;;;22.14;65.51
75794;BME280;64418;47.536;19.074;2023-09-19T01:28:39;99761.56;;;22.12;65.64
75794;BME280;64418;47.536;19.074;2023-09-19T01:31:12;99756.56;;;22.14;65.73
75794;BME280;64418;47.536;19.074;2023-09-19T01:33:58;99752.75;;;22.09;66.00
75794;BME280;64418;47.536;19.074;2023-09-19T01:36:24;99756.06;;;22.12;66.02
75794;BME280;64418;47.536;19.074;2023-09-19T01:38:50;99761.34;;;22.08;66.29
75794;BME280;64418;47.536;19.074;2023-09-19T01:41:21;99751.13;;;22.08;66.34
75794;BME280;64418;47.536;19.074;2023-09-19T01:43:51;99750.91;;;22.05;66.53
75794;BME280;64418;47.536;19.074;2023-09-19T01:46:24;99743.75;;;22.04;66.63
75794;BME280;64418;47.536;19.074;2023-09-19T01:48:57;99746.28;;;22.00;66.97
75794;BME280;64418;47.536;19.074;2023-09-19T01:51:33;99743.53;;;22.00;67.13
75794;BME280;64418;47.536;19.074;2023-09-19T01:54:02;99732.59;;;21.90;67.41
75794;BME280;64418;47.536;19.074;2023-09-19T01:56:32;99742.47;;;21.96;67.51
75794;BME280;64418;47.536;19.074;2023-09-19T01:59:04;99733.50;;;21.86;67.72
75794;BME280;64418;47.536;19.074;2023-09-19T02:01:34;99742.53;;;21.91;67.81
75794;BME280;64418;47.536;19.074;2023-09-19T02:04:00;99737.59;;;21.88;68.15
75794;BME280;64418;47.536;19.074;2023-09-19T02:06:26;99744.53;;;21.86;68.31
75794;BME280;64418;47.536;19.074;2023-09-19T02:08:54;99740.94;;;21.85;68.25
75794;BME280;64418;47.536;19.074;2023-09-19T02:11:20;99749.22;;;21.85;68.53
75794;BME280;64418;47.536;19.074;2023-09-19T02:13:46;99746.44;;;21.85;68.63
75794;BME280;64418;47.536;19.074;2023-09-19T02:16:12;99740.13;;;21.85;68.81
75794;BME280;64418;47.536;19.074;2023-09-19T02:18:40;99753.62;;;21.86;68.70
75794;BME280;64418;47.536;19.074;2023-09-19T02:21:05;99749.44;;;21.89;68.78
75794;BME280;64418;47.536;19.074;2023-09-19T02:23:31;99754.66;;;21.90;68.77
75794;BME280;64418;47.536;19.074;2023-09-19T02:25:58;99746.94;;;21.92;68.73
75794;BME280;64418;47.536;19.074;2023-09-19T02:28:24;99745.28;;;21.91;68.82
75794;BME280;64418;47.536;19.074;2023-09-19T02:30:50;99748.03;;;21.91;69.00
75794;BME280;64418;47.536;19.074;2023-09-19T02:33:16;99739.78;;;21.91;68.98
75794;BME280;64418;47.536;19.074;2023-09-19T02:35:44;99736.47;;;21.89;69.15
75794;BME280;64418;47.536;19.074;2023-09-19T02:38:10;99715.72;;;21.73;69.10
75794;BME280;64418;47.536;19.074;2023-09-19T02:40:37;99745.03;;;21.88;69.55
75794;BME280;64418;47.536;19.074;2023-09-19T02:43:03;99745.84;;;21.88;69.69
75794;BME280;64418;47.536;19.074;2023-09-19T02:45:29;99747.88;;;21.83;69.73
75794;BME280;64418;47.536;19.074;2023-09-19T02:47:55;99749.50;;;21.84;70.03
75794;BME280;64418;47.536;19.074;2023-09-19T02:50:21;99745.91;;;21.83;69.85
75794;BME280;64418;47.536;19.074;2023-09-19T02:52:49;99738.22;;;21.80;70.35
75794;BME280;64418;47.536;19.074;2023-09-19T02:55:16;99738.31;;;21.75;70.45
75794;BME280;64418;47.536;19.074;2023-09-19T02:57:45;99737.78;;;21.73;70.46
75794;BME280;64418;47.536;19.074;2023-09-19T03:00:12;99740.03;;;21.71;70.97
75794;BME280;64418;47.536;19.074;2023-09-19T03:02:39;99743.88;;;21.70;71.12
75794;BME280;64418;47.536;19.074;2023-09-19T03:05:06;99742.25;;;21.69;71.10
75794;BME280;64418;47.536;19.074;2023-09-19T03:07:33;99733.97;;;21.69;71.11
75794;BME280;64418;47.536;19.074;2023-09-19T03:10:00;99729.94;;;21.61;71.48
75794;BME280;64418;47.536;19.074;2023-09-19T03:12:26;99736.31;;;21.57;71.57
75794;BME280;64418;47.536;19.074;2023-09-19T03:14:52;99736.31;;;21.57;71.70
75794;BME280;64418;47.536;19.074;2023-09-19T03:17:18;99692.53;;;21.32;71.93
75794;BME280;64418;47.536;19.074;2023-09-19T03:19:44;99728.13;;;21.52;72.04
75794;BME280;64418;47.536;19.074;2023-09-19T03:22:11;99735.34;;;21.48;72.25
75794;BME280;64418;47.536;19.074;2023-09-19T03:24:38;99736.97;;;21.49;72.39
75794;BME280;64418;47.536;19.074;2023-09-19T03:27:06;99726.84;;;21.44;72.55
75794;BME280;64418;47.536;19.074;2023-09-19T03:29:34;99732.03;;;21.46;72.70
75794;BME280;64418;47.536;19.074;2023-09-19T03:32:00;99738.16;;;21.43;72.84
75794;BME280;64418;47.536;19.074;2023-09-19T03:34:26;99738.16;;;21.43;72.68
75794;BME280;64418;47.536;19.074;2023-09-19T03:36:52;99739.34;;;21.37;73.30
75794;BME280;64418;47.536;19.074;2023-09-19T03:39:18;99739.63;;;21.35;73.49
75794;BME280;64418;47.536;19.074;2023-09-19T03:41:44;99736.03;;;21.35;73.69
75794;BME280;64418;47.536;19.074;2023-09-19T03:44:11;99740.72;;;21.34;73.63
75794;BME280;64418;47.536;19.074;2023-09-19T03:46:37;99745.44;;;21.34;73.56
75794;BME280;64418;47.536;19.074;2023-09-19T03:49:03;99736.84;;;21.35;73.63
75794;BME280;64418;47.536;19.074;2023-09-19T03:51:29;99744.03;;;21.36;73.45
75794;BME280;64418;47.536;19.074;2023-09-19T03:53:55;99744.84;;;21.37;73.70
75794;BME280;64418;47.536;19.074;2023-09-19T03:56:21;99740.97;;;21.38;73.66
75794;BME280;64418;47.536;19.074;2023-09-19T03:58:47;99739.34;;;21.37;73.83
75794;BME280;64418;47.536;19.074;2023-09-19T04:01:15;99741.25;;;21.36;73.68
75794;BME280;64418;47.536;19.074;2023-09-19T04:03:41;99753.62;;;21.39;73.93
75794;BME280;64418;47.536;19.074;2023-09-19T04:06:07;99750.59;;;21.40;73.77
75794;BME280;64418;47.536;19.074;2023-09-19T04:08:34;99757.75;;;21.41;73.91
75794;BME280;64418;47.536;19.074;2023-09-19T04:11:00;99767.59;;;21.47;73.66
75794;BME280;64418;47.536;19.074;2023-09-19T04:13:26;99762.31;;;21.51;73.63
75794;BME280;64418;47.536;19.074;2023-09-19T04:15:52;99758.22;;;21.48;73.62
75794;BME280;64418;47.536;19.074;2023-09-19T04:18:20;99761.22;;;21.52;73.46
75794;BME280;64418;47.536;19.074;2023-09-19T04:20:48;99766.41;;;21.53;73.74
75794;BME280;64418;47.536;19.074;2023-09-19T04:23:14;99754.88;;;21.51;73.60
75794;BME280;64418;47.536;19.074;2023-09-19T04:25:41;99769.47;;;21.52;74.01
75794;BME280;64418;47.536;19.074;2023-09-19T04:28:07;99768.34;;;21.53;73.76
75794;BME280;64418;47.536;19.074;2023-09-19T04:30:34;99766.19;;;21.50;73.64
75794;BME280;64418;47.536;19.074;2023-09-19T04:33:00;99763.78;;;21.43;73.39
75794;BME280;64418;47.536;19.074;2023-09-19T04:35:28;99771.00;;;21.39;73.68
75794;BME280;64418;47.536;19.074;2023-09-19T04:37:54;99745.53;;;21.24;73.58
75794;BME280;64418;47.536;19.074;2023-09-19T04:40:20;99769.09;;;21.35;73.67
75794;BME280;64418;47.536;19.074;2023-09-19T04:42:53;99780.59;;;21.42;73.32
75794;BME280;64418;47.536;19.074;2023-09-19T04:45:20;99794.94;;;21.44;73.34
75794;BME280;64418;47.536;19.074;2023-09-19T04:47:46;99792.16;;;21.44;73.03
75794;BME280;64418;47.536;19.074;2023-09-19T04:50:12;99793.00;;;21.44;72.87
75794;BME280;64418;47.536;19.074;2023-09-19T04:52:40;99801.53;;;21.43;72.50
75794;BME280;64418;47.536;19.074;2023-09-19T04:55:08;99788.94;;;21.37;71.94
75794;BME280;64418;47.536;19.074;2023-09-19T04:57:34;99795.56;;;21.36;72.09
75794;BME280;64418;47.536;19.074;2023-09-19T05:00:00;99798.31;;;21.36;71.96
75794;BME280;64418;47.536;19.074;2023-09-19T05:02:29;99804.41;;;21.33;71.99
75794;BME280;64418;47.536;19.074;2023-09-19T05:04:55;99797.53;;;21.30;71.80
75794;BME280;64418;47.536;19.074;2023-09-19T05:07:21;99801.13;;;21.31;71.95
75794;BME280;64418;47.536;19.074;2023-09-19T05:09:50;99797.69;;;21.15;72.59
75794;BME280;64418;47.536;19.074;2023-09-19T05:12:15;99756.91;;;20.83;73.17
75794;BME280;64418;47.536;19.074;2023-09-19T05:14:41;99809.22;;;20.88;73.96
75794;BME280;64418;47.536;19.074;2023-09-19T05:17:08;99823.03;;;20.78;74.78
75794;BME280;64418;47.536;19.074;2023-09-19T05:19:59;99826.16;;;20.66;75.77
75794;BME280;64418;47.536;19.074;2023-09-19T05:22:26;99839.25;;;20.46;77.16
75794;BME280;64418;47.536;19.074;2023-09-19T05:24:54;99848.09;;;20.38;77.98
75794;BME280;64418;47.536;19.074;2023-09-19T05:27:20;99844.31;;;20.18;79.26
75794;BME280;64418;47.536;19.074;2023-09-19T05:29:45;99845.69;;;20.16;79.62
75794;BME280;64418;47.536;19.074;2023-09-19T05:32:12;99848.47;;;20.06;80.26
75794;BME280;64418;47.536;19.074;2023-09-19T05:34:38;99847.16;;;19.93;80.71
75794;BME280;64418;47.536;19.074;2023-09-19T05:37:05;99859.31;;;19.82;81.30
75794;BME280;64418;47.536;19.074;2023-09-19T05:39:30;99856.31;;;19.68;81.59
75794;BME280;64418;47.536;19.074;2023-09-19T05:41:58;99856.56;;;19.72;81.54
75794;BME280;64418;47.536;19.074;2023-09-19T05:44:25;99866.72;;;19.71;81.35
75794;BME280;64418;47.536;19.074;2023-09-19T05:46:51;99860.97;;;19.78;80.93
75794;BME280;64418;47.536;19.074;2023-09-19T05:49:17;99852.19;;;19.66;80.89
75794;BME280;64418;47.536;19.074;2023-09-19T05:51:43;99863.78;;;19.43;82.06
75794;BME280;64418;47.536;19.074;2023-09-19T05:54:09;99853.88;;;19.47;82.10
75794;BME280;64418;47.536;19.074;2023-09-19T05:56:36;99857.97;;;19.39;82.41
75794;BME280;64418;47.536;19.074;2023-09-19T05:59:03;99868.44;;;19.32;82.45
75794;BME280;64418;47.536;19.074;2023-09-19T06:01:29;99865.41;;;19.23;82.99
75794;BME280;64418;47.536;19.074;2023-09-19T06:03:55;99860.22;;;19.17;83.55
75794;BME280;64418;47.536;19.074;2023-09-19T06:06:21;99867.34;;;19.18;83.68
75794;BME280;64418;47.536;19.074;2023-09-19T06:08:47;99865.69;;;19.12;84.08
75794;BME280;64418;47.536;19.074;2023-09-19T06:11:13;99874.22;;;19.05;84.41
75794;BME280;64418;47.536;19.074;2023-09-19T06:13:40;99879.16;;;19.03;84.76
75794;BME280;64418;47.536;19.074;2023-09-19T06:16:07;99876.41;;;19.08;84.49
75794;BME280;64418;47.536;19.074;2023-09-19T06:18:33;99889.03;;;18.84;86.46
75794;BME280;64418;47.536;19.074;2023-09-19T06:21:02;99895.31;;;18.64;88.86
75794;BME280;64418;47.536;19.074;2023-09-19T06:23:29;99892.25;;;18.56;91.14
75794;BME280;64418;47.536;19.074;2023-09-19T06:25:55;99889.44;;;18.51;90.43
75794;BME280;64418;47.536;19.074;2023-09-19T06:28:21;99887.34;;;18.58;90.21
75794;BME280;64418;47.536;19.074;2023-09-19T06:30:47;99895.56;;;18.58;89.43
75794;BME280;64418;47.536;19.074;2023-09-19T06:33:15;99904.34;;;18.60;89.87
75794;BME280;64418;47.536;19.074;2023-09-19T06:35:41;99901.34;;;18.61;89.41
75794;BME280;64418;47.536;19.074;2023-09-19T06:38:07;99906.53;;;18.58;89.16
75794;BME280;64418;47.536;19.074;2023-09-19T06:40:33;99906.53;;;18.58;89.43
75794;BME280;64418;47.536;19.074;2023-09-19T06:42:59;99912.31;;;18.61;88.74
75794;BME280;64418;47.536;19.074;2023-09-19T06:45:25;99904.34;;;18.70;88.80
75794;BME280;64418;47.536;19.074;2023-09-19T06:47:51;99916.41;;;18.54;89.49
75794;BME280;64418;47.536;19.074;2023-09-19T06:50:19;99918.72;;;18.25;91.85
75794;BME280;64418;47.536;19.074;2023-09-19T06:52:46;99914.91;;;18.36;91.88
75794;BME280;64418;47.536;19.074;2023-09-19T06:55:11;99911.34;;;18.36;93.34
75794;BME280;64418;47.536;19.074;2023-09-19T06:57:37;99927.25;;;18.34;93.84
75794;BME280;64418;47.536;19.074;2023-09-19T07:00:04;99923.38;;;18.24;94.25
75794;BME280;64418;47.536;19.074;2023-09-19T07:02:30;99932.16;;;18.26;94.38
75794;BME280;64418;47.536;19.074;2023-09-19T07:04:56;99926.56;;;18.53;93.52
75794;BME280;64418;47.536;19.074;2023-09-19T07:07:23;99919.63;;;18.46;94.00
75794;BME280;64418;47.536;19.074;2023-09-19T07:09:49;99925.06;;;18.36;94.36
75794;BME280;64418;47.536;19.074;2023-09-19T07:12:15;99939.00;;;18.19;96.12
75794;BME280;64418;47.536;19.074;2023-09-19T07:14:41;99937.00;;;18.04;96.55
75794;BME280;64418;47.536;19.074;2023-09-19T07:17:07;99951.59;;;18.15;96.92
75794;BME280;64418;47.536;19.074;2023-09-19T07:19:38;99947.09;;;17.99;97.67
75794;BME280;64418;47.536;19.074;2023-09-19T07:22:04;99956.16;;;17.99;97.71
75794;BME280;64418;47.536;19.074;2023-09-19T07:24:31;99963.09;;;18.12;96.78
75794;BME280;64418;47.536;19.074;2023-09-19T07:26:58;99942.50;;;18.09;96.29
75794;BME280;64418;47.536;19.074;2023-09-19T07:29:24;99965.25;;;18.10;96.20
75794;BME280;64418;47.536;19.074;2023-09-19T07:31:49;99970.19;;;18.13;95.99
75794;BME280;64418;47.536;19.074;2023-09-19T07:34:17;99965.91;;;18.27;95.24
75794;BME280;64418;47.536;19.074;2023-09-19T07:36:44;99966.44;;;18.24;95.36
75794;BME280;64418;47.536;19.074;2023-09-19T07:39:10;99963.72;;;18.24;95.16
75794;BME280;64418;47.536;19.074;2023-09-19T07:41:37;99972.72;;;18.19;95.39
75794;BME280;64418;47.536;19.074;2023-09-19T07:44:03;99968.53;;;18.07;96.71
75794;BME280;64418;47.536;19.074;2023-09-19T07:46:30;99972.63;;;18.04;97.24
75794;BME280;64418;47.536;19.074;2023-09-19T07:48:56;99974.69;;;17.82;99.53
75794;BME280;64418;47.536;19.074;2023-09-19T07:51:22;99988.88;;;17.74;100.00
75794;BME280;64418;47.536;19.074;2023-09-19T07:53:47;99978.94;;;17.68;100.00
75794;BME280;64418;47.536;19.074;2023-09-19T07:56:14;99985.78;;;17.65;100.00
75794;BME280;64418;47.536;19.074;2023-09-19T07:58:44;99995.97;;;17.70;100.00
75794;BME280;64418;47.536;19.074;2023-09-19T08:01:10;99987.44;;;17.66;100.00
75794;BME280;64418;47.536;19.074;2023-09-19T08:03:36;99990.44;;;17.65;100.00
75794;BME280;64418;47.536;19.074;2023-09-19T08:06:02;99999.25;;;17.67;100.00
75794;BME280;64418;47.536;19.074;2023-09-19T08:08:28;99995.78;;;17.82;100.00
75794;BME280;64418;47.536;19.074;2023-09-19T08:10:54;100009.22;;;17.83;100.00
75794;BME280;64418;47.536;19.074;2023-09-19T08:13:20;100013.06;;;17.82;100.00
75794;BME280;64418;47.536;19.074;2023-09-19T08:15:47;100009.31;;;17.93;100.00
75794;BME280;64418;47.536;19.074;2023-09-19T08:18:14;100018.59;;;17.92;100.00
75794;BME280;64418;47.536;19.074;2023-09-19T08:20:40;100018.94;;;18.01;100.00
75794;BME280;64418;47.536;19.074;2023-09-19T08:23:06;100023.94;;;18.09;100.00
75794;BME280;64418;47.536;19.074;2023-09-19T08:25:31;100036.81;;;18.08;100.00
75794;BME280;64418;47.536;19.074;2023-09-19T08:27:57;100041.00;;;18.16;100.00
75794;BME280;64418;47.536;19.074;2023-09-19T08:30:24;100042.41;;;18.23;100.00
75794;BME280;64418;47.536;19.074;2023-09-19T08:32:51;100048.34;;;18.10;100.00
75794;BME280;64418;47.536;19.074;2023-09-19T08:35:17;100047.78;;;18.08;99.73
75794;BME280;64418;47.536;19.074;2023-09-19T08:37:42;100051.88;;;18.06;98.84
75794;BME280;64418;47.536;19.074;2023-09-19T08:40:09;100051.63;;;18.07;97.95
75794;BME280;64418;47.536;19.074;2023-09-19T08:42:49;100057.72;;;18.19;97.77
75794;BME280;64418;47.536;19.074;2023-09-19T08:45:15;100055.47;;;18.11;98.30
75794;BME280;64418;47.536;19.074;2023-09-19T08:47:45;100068.16;;;18.22;98.54
75794;BME280;64418;47.536;19.074;2023-09-19T08:50:18;100071.53;;;18.35;98.75
75794;BME280;64418;47.536;19.074;2023-09-19T08:52:46;100078.84;;;18.19;97.85
75794;BME280;64418;47.536;19.074;2023-09-19T08:55:14;100082.72;;;18.28;98.08
75794;BME280;64418;47.536;19.074;2023-09-19T08:57:45;100093.50;;;18.35;97.72
75794;BME280;64418;47.536;19.074;2023-09-19T09:00:13;100103.41;;;18.41;97.98
75794;BME280;64418;47.536;19.074;2023-09-19T09:02:39;100108.88;;;18.41;97.50
75794;BME280;64418;47.536;19.074;2023-09-19T09:05:05;100111.37;;;18.42;97.80
75794;BME280;64418;47.536;19.074;2023-09-19T09:07:33;100105.59;;;18.44;97.40
75794;BME280;64418;47.536;19.074;2023-09-19T09:10:02;100106.84;;;18.58;97.99
75794;BME280;64418;47.536;19.074;2023-09-19T09:12:29;100108.56;;;18.69;97.46
75794;BME280;64418;47.536;19.074;2023-09-19T09:14:56;100093.12;;;18.58;97.14
75794;BME280;64418;47.536;19.074;2023-09-19T09:17:22;100086.56;;;18.64;95.16
75794;BME280;64418;47.536;19.074;2023-09-19T09:19:48;100068.56;;;18.88;95.56
75794;BME280;64418;47.536;19.074;2023-09-19T09:22:13;100055.19;;;19.12;95.31
75794;BME280;64418;47.536;19.074;2023-09-19T09:24:52;100064.84;;;19.35;92.93
75794;BME280;64418;47.536;19.074;2023-09-19T09:27:19;100086.81;;;19.35;92.07
75794;BME280;64418;47.536;19.074;2023-09-19T09:29:47;100074.50;;;19.37;91.30
75794;BME280;64418;47.536;19.074;2023-09-19T09:32:20;100060.22;;;19.45;93.74
75794;BME280;64418;47.536;19.074;2023-09-19T09:34:48;100057.78;;;19.59;92.64
75794;BME280;64418;47.536;19.074;2023-09-19T09:37:15;100048.91;;;19.27;92.28
75794;BME280;64418;47.536;19.074;2023-09-19T09:39:49;100044.72;;;19.04;93.86
75794;BME280;64418;47.536;19.074;2023-09-19T09:42:29;100038.97;;;19.05;95.47
75794;BME280;64418;47.536;19.074;2023-09-19T09:45:12;100040.84;;;18.95;95.16
75794;BME280;64418;47.536;19.074;2023-09-19T09:47:42;100050.94;;;18.79;98.04
75794;BME280;64418;47.536;19.074;2023-09-19T09:50:08;100041.28;;;18.66;98.42
75794;BME280;64418;47.536;19.074;2023-09-19T09:52:44;100042.38;;;18.60;99.42
75794;BME280;64418;47.536;19.074;2023-09-19T09:55:12;100047.78;;;18.50;99.77
75794;BME280;64418;47.536;19.074;2023-09-19T09:57:39;100065.44;;;18.64;99.53
75794;BME280;64418;47.536;19.074;2023-09-19T10:00:06;100075.00;;;18.62;97.68
75794;BME280;64418;47.536;19.074;2023-09-19T10:02:36;100078.88;;;18.66;97.63
75794;BME280;64418;47.536;19.074;2023-09-19T10:05:11;100086.62;;;18.79;98.08
75794;BME280;64418;47.536;19.074;2023-09-19T10:07:37;100078.47;;;18.94;94.90
75794;BME280;64418;47.536;19.074;2023-09-19T10:10:05;100070.19;;;18.84;95.35
75794;BME280;64418;47.536;19.074;2023-09-19T10:12:32;100072.19;;;18.99;92.98
75794;BME280;64418;47.536;19.074;2023-09-19T10:15:00;100069.78;;;19.28;92.23
75794;BME280;64418;47.536;19.074;2023-09-19T10:17:29;100078.84;;;19.28;91.61
75794;BME280;64418;47.536;19.074;2023-09-19T10:19:56;100072.53;;;19.38;90.77
75794;BME280;64418;47.536;19.074;2023-09-19T10:22:22;100075.41;;;19.93;88.54
75794;BME280;64418;47.536;19.074;2023-09-19T10:24:49;100073.72;;;20.02;88.20
75794;BME280;64418;47.536;19.074;2023-09-19T10:27:16;100086.41;;;19.93;88.30
75794;BME280;64418;47.536;19.074;2023-09-19T10:29:43;100086.94;;;19.85;88.74
75794;BME280;64418;47.536;19.074;2023-09-19T10:32:14;100084.75;;;20.07;87.73
75794;BME280;64418;47.536;19.074;2023-09-19T10:34:49;100088.53;;;20.57;85.71
75794;BME280;64418;47.536;19.074;2023-09-19T10:37:19;100090.22;;;20.23;86.56
75794;BME280;64418;47.536;19.074;2023-09-19T10:39:46;100092.97;;;20.58;83.73
75794;BME280;64418;47.536;19.074;2023-09-19T10:42:18;100096.19;;;20.80;82.38
75794;BME280;64418;47.536;19.074;2023-09-19T10:44:45;100098.44;;;20.63;83.50
75794;BME280;64418;47.536;19.074;2023-09-19T10:47:14;100106.06;;;20.86;81.79
75794;BME280;64418;47.536;19.074;2023-09-19T10:49:44;100097.03;;;20.76;81.95
75794;BME280;64418;47.536;19.074;2023-09-19T10:52:09;100099.03;;;20.50;81.13
75794;BME280;64418;47.536;19.074;2023-09-19T10:54:36;100097.97;;;20.31;82.38
75794;BME280;64418;47.536;19.074;2023-09-19T10:57:02;100101.78;;;20.45;81.64
75794;BME280;64418;47.536;19.074;2023-09-19T10:59:29;100105.13;;;20.32;83.34
75794;BME280;64418;47.536;19.074;2023-09-19T11:01:56;100106.75;;;20.38;82.44
75794;BME280;64418;47.536;19.074;2023-09-19T11:04:26;100113.91;;;20.29;82.76
75794;BME280;64418;47.536;19.074;2023-09-19T11:07:03;100104.00;;;20.43;81.73
75794;BME280;64418;47.536;19.074;2023-09-19T11:09:45;100114.97;;;20.48;81.69
75794;BME280;64418;47.536;19.074;2023-09-19T11:12:11;100121.53;;;20.67;81.91
75794;BME280;64418;47.536;19.074;2023-09-19T11:14:41;100133.38;;;20.73;80.38
75794;BME280;64418;47.536;19.074;2023-09-19T11:17:41;100135.03;;;20.69;80.03
75794;BME280;64418;47.536;19.074;2023-09-19T11:20:23;100134.66;;;21.05;77.16
75794;BME280;64418;47.536;19.074;2023-09-19T11:25:54;100132.78;;;22.33;69.78
75794;BME280;64418;47.536;19.074;2023-09-19T11:28:35;100125.03;;;22.64;69.10
75794;BME280;64418;47.536;19.074;2023-09-19T11:37:01;100121.06;;;24.21;60.79
75794;BME280;64418;47.536;19.074;2023-09-19T11:39:29;100118.87;;;24.64;59.11
75794;BME280;64418;47.536;19.074;2023-09-19T11:41:56;100118.25;;;24.53;58.53
75794;BME280;64418;47.536;19.074;2023-09-19T11:44:33;100120.69;;;25.01;55.63
75794;BME280;64418;47.536;19.074;2023-09-19T11:47:07;100107.91;;;25.27;55.98
75794;BME280;64418;47.536;19.074;2023-09-19T11:49:34;100109.38;;;25.24;54.88
75794;BME280;64418;47.536;19.074;2023-09-19T11:52:03;100109.03;;;24.25;57.00
75794;BME280;64418;47.536;19.074;2023-09-19T11:54:29;100093.41;;;23.65;59.32
75794;BME280;64418;47.536;19.074;2023-09-19T11:56:55;100092.06;;;23.20;60.66
75794;BME280;64418;47.536;19.074;2023-09-19T11:59:22;100100.31;;;23.25;59.91
75794;BME280;64418;47.536;19.074;2023-09-19T12:01:52;100088.81;;;23.92;57.53
75794;BME280;64418;47.536;19.074;2023-09-19T12:04:21;100083.28;;;24.57;55.72
75794;BME280;64418;47.536;19.074;2023-09-19T12:06:58;100076.69;;;24.53;56.33
75794;BME280;64418;47.536;19.074;2023-09-19T12:09:26;100063.84;;;23.97;57.05
75794;BME280;64418;47.536;19.074;2023-09-19T12:11:52;100080.38;;;24.35;56.97
75794;BME280;64418;47.536;19.074;2023-09-19T12:14:25;100076.09;;;24.83;56.41
75794;BME280;64418;47.536;19.074;2023-09-19T12:16:55;100090.72;;;25.03;55.17
75794;BME280;64418;47.536;19.074;2023-09-19T12:19:22;100094.41;;;24.98;55.50
75794;BME280;64418;47.536;19.074;2023-09-19T12:21:54;100099.59;;;25.40;54.86
75794;BME280;64418;47.536;19.074;2023-09-19T12:24:20;100094.91;;;24.27;57.93
75794;BME280;64418;47.536;19.074;2023-09-19T12:26:47;100102.78;;;24.79;57.31
75794;BME280;64418;47.536;19.074;2023-09-19T12:29:15;100093.25;;;24.85;57.38
75794;BME280;64418;47.536;19.074;2023-09-19T12:31:51;100105.25;;;24.03;58.86
75794;BME280;64418;47.536;19.074;2023-09-19T12:34:20;100098.03;;;24.39;58.17
75794;BME280;64418;47.536;19.074;2023-09-19T12:36:46;100097.91;;;24.44;57.82
75794;BME280;64418;47.536;19.074;2023-09-19T12:39:23;100110.34;;;24.14;59.11
75794;BME280;64418;47.536;19.074;2023-09-19T12:41:51;100114.09;;;24.23;57.73
75794;BME280;64418;47.536;19.074;2023-09-19T12:44:18;100118.41;;;24.89;55.69
75794;BME280;64418;47.536;19.074;2023-09-19T12:46:44;100122.06;;;24.25;57.37
75794;BME280;64418;47.536;19.074;2023-09-19T12:49:17;100124.94;;;24.01;58.49
75794;BME280;64418;47.536;19.074;2023-09-19T12:51:44;100119.50;;;23.77;59.83
75794;BME280;64418;47.536;19.074;2023-09-19T12:54:10;100112.16;;;24.37;58.11
75794;BME280;64418;47.536;19.074;2023-09-19T12:56:40;100120.50;;;25.11;55.84
75794;BME280;64418;47.536;19.074;2023-09-19T12:59:08;100111.41;;;24.78;57.02